createdAt,value
2017-10-07T00:01:30.649Z,1016.08
2017-10-07T00:02:30.689Z,1016.07
2017-10-07T00:04:23.697Z,1016.10
2017-10-07T00:05:23.739Z,1016.08
2017-10-07T00:07:16.727Z,1016.10
2017-10-07T00:08:16.791Z,1016.08
2017-10-07T00:10:09.794Z,1016.10
2017-10-07T00:11:09.834Z,1016.08
2017-10-07T00:13:02.822Z,1016.12
2017-10-07T00:14:02.878Z,1016.11
2017-10-07T00:15:55.885Z,1016.13
2017-10-07T00:16:55.925Z,1016.11
2017-10-07T00:18:48.912Z,1016.07
2017-10-07T00:19:48.971Z,1016.06
2017-10-07T00:21:41.982Z,1016.09
2017-10-07T00:22:42.018Z,1016.06
2017-10-07T00:24:35.023Z,1016.04
2017-10-07T00:25:35.062Z,1016.02
2017-10-07T00:27:28.050Z,1015.98
2017-10-07T00:28:28.107Z,1016.05
2017-10-07T00:30:21.112Z,1016.00
2017-10-07T00:31:21.153Z,1016.04
2017-10-07T00:33:14.141Z,1016.02
2017-10-07T00:34:14.198Z,1015.98
2017-10-07T00:36:07.208Z,1016.01
2017-10-07T00:37:07.247Z,1016.01
2017-10-07T00:39:00.236Z,1016.02
2017-10-07T00:40:00.291Z,1015.98
2017-10-07T00:41:53.304Z,1015.99
2017-10-07T00:42:53.337Z,1015.98
2017-10-07T00:44:46.341Z,1015.93
2017-10-07T00:45:46.382Z,1015.90
2017-10-07T00:47:39.373Z,1015.86
2017-10-07T00:48:39.433Z,1015.88
2017-10-07T00:50:32.440Z,1015.87
2017-10-07T00:51:32.481Z,1015.81
2017-10-07T00:53:25.468Z,1015.78
2017-10-07T00:54:25.529Z,1015.81
2017-10-07T00:56:18.535Z,1015.83
2017-10-07T00:57:18.575Z,1015.80
2017-10-07T00:59:12.076Z,1015.80
2017-10-07T01:00:12.126Z,1015.77
2017-10-07T01:02:05.131Z,1015.76
2017-10-07T01:03:05.173Z,1015.72
2017-10-07T01:04:58.176Z,1015.67
2017-10-07T01:05:58.217Z,1015.71
2017-10-07T01:07:51.200Z,1015.67
2017-10-07T01:08:51.261Z,1015.66
2017-10-07T01:10:44.264Z,1015.63
2017-10-07T01:11:44.304Z,1015.60
2017-10-07T01:13:37.295Z,1015.56
2017-10-07T01:14:37.351Z,1015.55
2017-10-07T01:16:30.355Z,1015.55
2017-10-07T01:17:30.395Z,1015.50
2017-10-07T01:19:23.383Z,1015.48
2017-10-07T01:20:23.438Z,1015.46
2017-10-07T01:22:16.442Z,1015.45
2017-10-07T01:23:16.486Z,1015.41
2017-10-07T01:25:09.490Z,1015.39
2017-10-07T01:26:09.530Z,1015.39
2017-10-07T01:28:02.518Z,1015.37
2017-10-07T01:29:02.574Z,1015.37
2017-10-07T01:30:55.580Z,1015.36
2017-10-07T01:31:55.619Z,1015.31
2017-10-07T01:33:48.616Z,1015.35
2017-10-07T01:34:48.663Z,1015.33
2017-10-07T01:36:41.670Z,1015.32
2017-10-07T01:37:41.708Z,1015.30
2017-10-07T01:39:34.697Z,1015.35
2017-10-07T01:40:34.770Z,1015.32
2017-10-07T01:42:27.756Z,1015.23
2017-10-07T01:43:27.797Z,1015.27
2017-10-07T01:45:20.804Z,1015.23
2017-10-07T01:46:20.842Z,1015.21
2017-10-07T01:48:13.830Z,1015.27
2017-10-07T01:49:13.893Z,1015.25
2017-10-07T01:51:06.897Z,1015.24
2017-10-07T01:52:06.939Z,1015.26
2017-10-07T01:53:59.926Z,1015.23
2017-10-07T01:54:59.985Z,1015.24
2017-10-07T01:56:53.019Z,1015.22
2017-10-07T01:57:53.025Z,1015.24
2017-10-07T01:59:46.519Z,1015.21
2017-10-07T02:00:46.577Z,1015.19
2017-10-07T02:02:39.581Z,1015.16
2017-10-07T02:03:39.621Z,1015.11
2017-10-07T02:05:32.626Z,1015.12
2017-10-07T02:06:32.665Z,1015.12
2017-10-07T02:08:25.653Z,1015.09
2017-10-07T02:09:25.710Z,1015.06
2017-10-07T02:11:18.714Z,1015.06
2017-10-07T02:12:18.756Z,1015.07
2017-10-07T02:14:11.742Z,1015.13
2017-10-07T02:15:11.804Z,1015.11
2017-10-07T02:17:04.808Z,1015.12
2017-10-07T02:18:04.849Z,1015.09
2017-10-07T02:19:57.831Z,1015.11
2017-10-07T02:20:57.892Z,1015.11
2017-10-07T02:22:50.924Z,1015.02
2017-10-07T02:23:50.964Z,1015.06
2017-10-07T02:25:43.967Z,1015.09
2017-10-07T02:26:44.007Z,1015.05
2017-10-07T02:28:36.995Z,1015.03
2017-10-07T02:29:37.050Z,1014.97
2017-10-07T02:31:30.057Z,1015.01
2017-10-07T02:32:30.098Z,1014.97
2017-10-07T02:34:23.084Z,1014.96
2017-10-07T02:35:23.142Z,1014.95
2017-10-07T02:37:16.147Z,1014.91
2017-10-07T02:38:16.187Z,1014.91
2017-10-07T02:40:09.175Z,1014.85
2017-10-07T02:41:09.234Z,1014.84
2017-10-07T02:43:02.240Z,1014.82
2017-10-07T02:44:02.281Z,1014.81
2017-10-07T02:45:55.265Z,1014.83
2017-10-07T02:46:55.323Z,1014.80
2017-10-07T02:48:48.328Z,1014.77
2017-10-07T02:49:48.366Z,1014.74
2017-10-07T02:51:41.370Z,1014.75
2017-10-07T02:52:41.410Z,1014.73
2017-10-07T02:54:34.401Z,1014.65
2017-10-07T02:55:34.460Z,1014.68
2017-10-07T02:57:27.465Z,1014.76
2017-10-07T02:58:27.506Z,1014.76
2017-10-07T03:00:20.496Z,1014.76
2017-10-07T03:01:20.549Z,1014.80
2017-10-07T03:03:13.557Z,1014.81
2017-10-07T03:04:13.596Z,1014.83
2017-10-07T03:06:06.584Z,1014.79
2017-10-07T03:07:06.642Z,1014.81
2017-10-07T03:08:59.647Z,1014.76
2017-10-07T03:09:59.686Z,1014.72
2017-10-07T03:11:52.694Z,1014.72
2017-10-07T03:12:52.733Z,1014.72
2017-10-07T03:14:45.716Z,1014.70
2017-10-07T03:15:45.776Z,1014.68
2017-10-07T03:17:38.781Z,1014.62
2017-10-07T03:18:38.823Z,1014.58
2017-10-07T03:20:31.810Z,1014.60
2017-10-07T03:21:31.867Z,1014.60
2017-10-07T03:23:24.870Z,1014.58
2017-10-07T03:24:24.913Z,1014.59
2017-10-07T03:26:17.897Z,1014.53
2017-10-07T03:27:17.953Z,1014.53
2017-10-07T03:29:10.959Z,1014.51
2017-10-07T03:30:10.999Z,1014.51
2017-10-07T03:32:04.003Z,1014.51
2017-10-07T03:33:04.042Z,1014.43
2017-10-07T03:34:57.024Z,1014.50
2017-10-07T03:35:57.084Z,1014.45
2017-10-07T03:37:50.089Z,1014.39
2017-10-07T03:38:50.127Z,1014.34
2017-10-07T03:40:43.116Z,1014.35
2017-10-07T03:41:43.173Z,1014.32
2017-10-07T03:43:36.179Z,1014.25
2017-10-07T03:44:36.220Z,1014.28
2017-10-07T03:46:29.200Z,1014.27
2017-10-07T03:47:29.261Z,1014.23
2017-10-07T03:49:22.265Z,1014.19
2017-10-07T03:50:22.306Z,1014.22
2017-10-07T03:52:15.309Z,1014.21
2017-10-07T03:53:15.348Z,1014.17
2017-10-07T03:55:08.335Z,1014.10
2017-10-07T03:56:08.394Z,1014.14
2017-10-07T03:58:01.396Z,1014.14
2017-10-07T03:59:01.437Z,1014.13
2017-10-07T04:00:54.423Z,1014.04
2017-10-07T04:01:54.481Z,1014.07
2017-10-07T04:03:47.491Z,1014.04
2017-10-07T04:04:47.527Z,1014.03
2017-10-07T04:06:40.514Z,1013.96
2017-10-07T04:07:40.570Z,1014.01
2017-10-07T04:09:33.578Z,1013.98
2017-10-07T04:10:33.619Z,1013.98
2017-10-07T04:12:26.621Z,1013.95
2017-10-07T04:13:26.661Z,1013.93
2017-10-07T04:15:19.648Z,1013.90
2017-10-07T04:16:19.720Z,1013.91
2017-10-07T04:18:12.711Z,1013.99
2017-10-07T04:19:12.749Z,1014.02
2017-10-07T04:21:05.739Z,1014.07
2017-10-07T04:22:05.800Z,1014.06
2017-10-07T04:23:58.806Z,1014.12
2017-10-07T04:24:58.849Z,1014.15
2017-10-07T04:26:51.846Z,1014.24
2017-10-07T04:27:51.891Z,1014.23
2017-10-07T04:29:44.902Z,1014.25
2017-10-07T04:30:44.950Z,1014.28
2017-10-07T04:32:37.946Z,1014.23
2017-10-07T04:33:37.985Z,1014.26
2017-10-07T04:35:30.975Z,1014.24
2017-10-07T04:36:31.036Z,1014.25
2017-10-07T04:38:24.040Z,1014.16
2017-10-07T04:39:24.080Z,1014.17
2017-10-07T04:41:17.064Z,1014.20
2017-10-07T04:42:17.129Z,1014.23
2017-10-07T04:44:10.123Z,1014.18
2017-10-07T04:45:10.164Z,1014.19
2017-10-07T04:47:03.146Z,1014.17
2017-10-07T04:48:03.205Z,1014.11
2017-10-07T04:49:56.214Z,1014.09
2017-10-07T04:50:56.249Z,1014.09
2017-10-07T04:52:49.257Z,1014.05
2017-10-07T04:53:49.298Z,1014.04
2017-10-07T04:55:42.285Z,1014.06
2017-10-07T04:56:42.340Z,1014.05
2017-10-07T04:58:35.346Z,1014.05
2017-10-07T04:59:35.385Z,1014.04
2017-10-07T05:01:28.375Z,1014.01
2017-10-07T05:02:28.433Z,1014.01
2017-10-07T05:04:21.438Z,1013.99
2017-10-07T05:05:21.477Z,1013.97
2017-10-07T05:07:14.464Z,1013.95
2017-10-07T05:08:14.519Z,1013.99
2017-10-07T05:10:07.522Z,1014.00
2017-10-07T05:11:07.562Z,1013.98
2017-10-07T05:13:00.565Z,1013.92
2017-10-07T05:14:00.607Z,1013.91
2017-10-07T05:15:53.615Z,1013.86
2017-10-07T05:16:53.656Z,1013.89
2017-10-07T05:18:46.661Z,1013.81
2017-10-07T05:19:46.699Z,1013.82
2017-10-07T05:21:39.687Z,1013.77
2017-10-07T05:22:39.747Z,1013.76
2017-10-07T05:24:32.798Z,1013.75
2017-10-07T05:25:32.796Z,1013.72
2017-10-07T05:27:25.785Z,1013.64
2017-10-07T05:28:25.839Z,1013.66
2017-10-07T05:30:18.842Z,1013.60
2017-10-07T05:31:18.899Z,1013.59
2017-10-07T05:33:11.884Z,1013.52
2017-10-07T05:34:11.925Z,1013.58
2017-10-07T05:36:04.910Z,1013.49
2017-10-07T05:37:04.968Z,1013.47
2017-10-07T05:38:57.986Z,1013.45
2017-10-07T05:39:58.011Z,1013.44
2017-10-07T05:41:51.008Z,1013.43
2017-10-07T05:42:51.101Z,1013.43
2017-10-07T05:44:44.127Z,1013.34
2017-10-07T05:45:44.124Z,1013.37
2017-10-07T05:47:37.105Z,1013.32
2017-10-07T05:48:37.161Z,1013.34
2017-10-07T05:50:30.171Z,1013.35
2017-10-07T05:51:30.209Z,1013.33
2017-10-07T05:53:23.212Z,1013.28
2017-10-07T05:54:23.263Z,1013.29
2017-10-07T05:56:16.239Z,1013.28
2017-10-07T05:57:16.297Z,1013.24
2017-10-07T05:59:09.297Z,1013.26
2017-10-07T06:00:09.337Z,1013.23
2017-10-07T06:02:02.331Z,1013.23
2017-10-07T06:03:02.396Z,1013.27
2017-10-07T06:04:55.389Z,1013.24
2017-10-07T06:05:55.429Z,1013.28
2017-10-07T06:07:48.419Z,1013.19
2017-10-07T06:08:48.478Z,1013.17
2017-10-07T06:10:41.507Z,1013.11
2017-10-07T06:11:41.529Z,1013.14
2017-10-07T06:13:34.535Z,1013.14
2017-10-07T06:14:34.571Z,1013.05
2017-10-07T06:16:27.563Z,1013.04
2017-10-07T06:17:27.635Z,1013.04
2017-10-07T06:19:20.626Z,1013.00
2017-10-07T06:20:20.670Z,1013.08
2017-10-07T06:22:13.656Z,1013.04
2017-10-07T06:23:13.726Z,1013.11
2017-10-07T06:25:06.713Z,1013.12
2017-10-07T06:26:06.752Z,1013.08
2017-10-07T06:27:59.735Z,1013.08
2017-10-07T06:28:59.797Z,1013.11
2017-10-07T06:30:52.805Z,1013.15
2017-10-07T06:31:52.844Z,1013.12
2017-10-07T06:33:45.848Z,1013.03
2017-10-07T06:34:45.888Z,1013.09
2017-10-07T06:36:38.921Z,1013.04
2017-10-07T06:37:38.928Z,1013.03
2017-10-07T06:39:31.933Z,1013.05
2017-10-07T06:40:31.991Z,1013.13
2017-10-07T06:42:24.958Z,1013.04
2017-10-07T06:43:25.017Z,1013.06
2017-10-07T06:45:18.020Z,1012.99
2017-10-07T06:46:18.060Z,1012.98
2017-10-07T06:48:11.046Z,1012.89
2017-10-07T06:49:11.105Z,1012.86
2017-10-07T06:51:04.109Z,1012.82
2017-10-07T06:52:04.149Z,1012.81
2017-10-07T06:53:57.156Z,1012.78
2017-10-07T06:54:57.194Z,1012.80
2017-10-07T06:56:50.186Z,1012.79
2017-10-07T06:57:50.247Z,1012.82
2017-10-07T06:59:43.252Z,1012.84
2017-10-07T07:00:43.292Z,1012.74
2017-10-07T07:02:36.281Z,1012.73
2017-10-07T07:03:36.336Z,1012.73
2017-10-07T07:05:29.341Z,1012.66
2017-10-07T07:06:29.379Z,1012.64
2017-10-07T07:08:22.369Z,1012.67
2017-10-07T07:09:22.423Z,1012.67
2017-10-07T07:11:15.433Z,1012.63
2017-10-07T07:12:15.473Z,1012.59
2017-10-07T07:14:08.477Z,1012.56
2017-10-07T07:15:08.516Z,1012.53
2017-10-07T07:17:01.503Z,1012.46
2017-10-07T07:18:01.561Z,1012.48
2017-10-07T07:19:54.564Z,1012.49
2017-10-07T07:20:54.604Z,1012.48
2017-10-07T07:22:48.098Z,1012.45
2017-10-07T07:23:48.154Z,1012.39
2017-10-07T07:25:41.160Z,1012.39
2017-10-07T07:26:41.207Z,1012.40
2017-10-07T07:28:34.186Z,1012.38
2017-10-07T07:29:34.244Z,1012.33
2017-10-07T07:31:27.248Z,1012.31
2017-10-07T07:32:27.289Z,1012.30
2017-10-07T07:34:20.290Z,1012.28
2017-10-07T07:35:20.330Z,1012.26
2017-10-07T07:37:13.318Z,1012.20
2017-10-07T07:38:13.373Z,1012.23
2017-10-07T07:40:06.381Z,1012.23
2017-10-07T07:41:06.419Z,1012.24
2017-10-07T07:42:59.404Z,1012.16
2017-10-07T07:43:59.468Z,1012.16
2017-10-07T07:45:52.469Z,1012.21
2017-10-07T07:46:52.508Z,1012.18
2017-10-07T07:48:45.496Z,1012.17
2017-10-07T07:49:45.556Z,1012.13
2017-10-07T07:51:38.557Z,1012.10
2017-10-07T07:52:38.598Z,1012.14
2017-10-07T07:54:31.604Z,1012.14
2017-10-07T07:55:31.643Z,1012.13
2017-10-07T07:57:24.647Z,1012.11
2017-10-07T07:58:24.751Z,1012.18
2017-10-07T08:00:17.719Z,1012.08
2017-10-07T08:01:17.758Z,1012.12
2017-10-07T08:03:10.773Z,1012.16
2017-10-07T08:04:10.804Z,1012.07
2017-10-07T08:06:03.840Z,1012.10
2017-10-07T08:07:03.870Z,1012.10
2017-10-07T08:08:56.841Z,1012.03
2017-10-07T08:09:56.902Z,1011.99
2017-10-07T08:11:49.924Z,1011.98
2017-10-07T08:12:49.949Z,1011.95
2017-10-07T08:14:42.960Z,1011.87
2017-10-07T08:15:43.002Z,1011.88
2017-10-07T08:17:35.995Z,1011.83
2017-10-07T08:18:36.058Z,1011.85
2017-10-07T08:20:29.089Z,1011.80
2017-10-07T08:21:29.113Z,1011.75
2017-10-07T08:23:22.610Z,1011.75
2017-10-07T08:24:22.667Z,1011.64
2017-10-07T08:26:15.677Z,1011.65
2017-10-07T08:27:15.730Z,1011.65
2017-10-07T08:29:08.707Z,1011.61
2017-10-07T08:30:08.767Z,1011.55
2017-10-07T08:32:01.776Z,1011.52
2017-10-07T08:33:01.816Z,1011.55
2017-10-07T08:34:54.832Z,1011.58
2017-10-07T08:35:54.863Z,1011.61
2017-10-07T08:37:47.855Z,1011.69
2017-10-07T08:38:47.917Z,1011.64
2017-10-07T08:40:40.931Z,1011.53
2017-10-07T08:41:40.969Z,1011.57
2017-10-07T08:43:33.975Z,1011.54
2017-10-07T08:44:34.022Z,1011.50
2017-10-07T08:46:27.027Z,1011.46
2017-10-07T08:47:27.070Z,1011.41
2017-10-07T08:49:20.060Z,1011.42
2017-10-07T08:50:20.114Z,1011.41
2017-10-07T08:52:13.144Z,1011.37
2017-10-07T08:53:13.168Z,1011.36
2017-10-07T08:55:06.175Z,1011.34
2017-10-07T08:56:06.215Z,1011.26
2017-10-07T08:57:59.207Z,1011.40
2017-10-07T08:58:59.268Z,1011.35
2017-10-07T09:00:52.275Z,1011.35
2017-10-07T09:01:52.315Z,1011.39
2017-10-07T09:03:45.303Z,1011.47
2017-10-07T09:04:45.379Z,1011.39
2017-10-07T09:06:38.389Z,1011.35
2017-10-07T09:07:38.410Z,1011.32
2017-10-07T09:09:31.400Z,1011.26
2017-10-07T09:10:31.458Z,1011.20
2017-10-07T09:12:24.471Z,1011.12
2017-10-07T09:13:24.508Z,1011.10
2017-10-07T09:15:17.513Z,1010.99
2017-10-07T09:16:17.561Z,1010.94
2017-10-07T09:18:10.543Z,1010.97
2017-10-07T09:19:10.598Z,1010.92
2017-10-07T09:21:03.607Z,1010.87
2017-10-07T09:22:03.647Z,1010.85
2017-10-07T09:23:56.634Z,1010.75
2017-10-07T09:24:56.695Z,1010.77
2017-10-07T09:26:49.702Z,1010.69
2017-10-07T09:27:49.742Z,1010.67
2017-10-07T09:29:42.732Z,1010.63
2017-10-07T09:30:42.793Z,1010.54
2017-10-07T09:32:35.798Z,1010.63
2017-10-07T09:33:35.853Z,1010.57
2017-10-07T09:35:28.851Z,1010.61
2017-10-07T09:36:28.886Z,1010.53
2017-10-07T09:38:21.876Z,1010.45
2017-10-07T09:39:21.932Z,1010.29
2017-10-07T09:41:14.941Z,1010.42
2017-10-07T09:42:14.981Z,1010.46
2017-10-07T09:44:07.967Z,1010.43
2017-10-07T09:45:08.028Z,1010.38
2017-10-07T09:47:01.034Z,1010.23
2017-10-07T09:48:01.074Z,1010.32
2017-10-07T09:49:54.065Z,1010.20
2017-10-07T09:50:54.128Z,1010.23
2017-10-07T09:52:47.134Z,1010.13
2017-10-07T09:53:47.176Z,1010.12
2017-10-07T09:55:40.182Z,1010.08
2017-10-07T09:56:40.222Z,1010.11
2017-10-07T09:58:33.210Z,1010.11
2017-10-07T09:59:33.267Z,1010.20
2017-10-07T10:01:26.279Z,1010.11
2017-10-07T10:02:26.320Z,1010.14
2017-10-07T10:04:19.308Z,1010.10
2017-10-07T10:05:19.366Z,1010.10
2017-10-07T10:07:12.375Z,1010.13
2017-10-07T10:08:12.415Z,1010.05
2017-10-07T10:10:05.403Z,1010.06
2017-10-07T10:11:05.464Z,1010.12
2017-10-07T10:12:58.468Z,1010.07
2017-10-07T10:13:58.512Z,1010.13
2017-10-07T10:15:51.514Z,1010.04
2017-10-07T10:16:51.555Z,1010.07
2017-10-07T10:18:44.543Z,1010.00
2017-10-07T10:19:44.604Z,1009.99
2017-10-07T10:21:37.609Z,1009.98
2017-10-07T10:22:37.653Z,1009.94
2017-10-07T10:24:30.635Z,1010.00
2017-10-07T10:25:30.695Z,1010.03
2017-10-07T10:27:23.701Z,1009.90
2017-10-07T10:28:23.742Z,1009.90
2017-10-07T10:30:16.732Z,1010.01
2017-10-07T10:31:16.790Z,1009.90
2017-10-07T10:33:09.800Z,1009.90
2017-10-07T10:34:09.839Z,1009.95
2017-10-07T10:36:02.846Z,1010.00
2017-10-07T10:37:02.886Z,1010.03
2017-10-07T10:38:55.871Z,1009.93
2017-10-07T10:39:55.933Z,1009.94
2017-10-07T10:41:48.940Z,1009.84
2017-10-07T10:42:48.981Z,1009.88
2017-10-07T10:44:41.967Z,1009.99
2017-10-07T10:45:42.028Z,1009.94
2017-10-07T10:47:35.032Z,1009.85
2017-10-07T10:48:35.092Z,1009.83
2017-10-07T10:50:28.062Z,1009.93
2017-10-07T10:51:28.121Z,1009.89
2017-10-07T10:53:21.133Z,1009.84
2017-10-07T10:54:21.166Z,1009.79
2017-10-07T10:56:14.176Z,1009.76
2017-10-07T10:57:14.220Z,1009.69
2017-10-07T10:59:07.249Z,1009.58
2017-10-07T11:00:07.263Z,1009.55
2017-10-07T11:02:00.285Z,1009.37
2017-10-07T11:03:00.321Z,1009.51
2017-10-07T11:04:53.296Z,1009.54
2017-10-07T11:05:53.356Z,1009.55
2017-10-07T11:07:46.361Z,1009.60
2017-10-07T11:08:46.403Z,1009.51
2017-10-07T11:10:39.390Z,1009.45
2017-10-07T11:11:39.449Z,1009.41
2017-10-07T11:13:32.458Z,1009.41
2017-10-07T11:14:32.494Z,1009.43
2017-10-07T11:16:25.500Z,1009.35
2017-10-07T11:17:25.542Z,1009.38
2017-10-07T11:19:18.539Z,1009.43
2017-10-07T11:20:18.591Z,1009.38
2017-10-07T11:22:11.612Z,1009.31
2017-10-07T11:23:11.641Z,1009.34
2017-10-07T11:25:04.675Z,1009.28
2017-10-07T11:26:04.682Z,1009.30
2017-10-07T11:27:57.690Z,1009.22
2017-10-07T11:28:57.735Z,1009.20
2017-10-07T11:30:50.720Z,1009.18
2017-10-07T11:31:50.777Z,1009.16
2017-10-07T11:33:43.785Z,1009.16
2017-10-07T11:34:43.824Z,1009.21
2017-10-07T11:36:36.829Z,1009.14
2017-10-07T11:37:36.868Z,1009.05
2017-10-07T11:39:29.872Z,1009.06
2017-10-07T11:40:29.924Z,1008.99
2017-10-07T11:42:34.566Z,1009.04
2017-10-07T11:43:34.598Z,1009.02
2017-10-07T11:45:27.587Z,1009.09
2017-10-07T11:46:27.655Z,1009.00
2017-10-07T11:48:20.650Z,1008.93
2017-10-07T11:49:20.693Z,1008.89
2017-10-07T11:51:13.698Z,1008.81
2017-10-07T11:52:13.735Z,1008.86
2017-10-07T11:54:06.723Z,1008.83
2017-10-07T11:55:06.778Z,1008.80
2017-10-07T11:56:59.825Z,1008.74
2017-10-07T11:57:59.859Z,1008.72
2017-10-07T11:59:52.854Z,1008.71
2017-10-07T12:00:52.914Z,1008.70
2017-10-07T12:02:45.917Z,1008.71
2017-10-07T12:03:45.957Z,1008.69
2017-10-07T12:05:38.945Z,1008.62
2017-10-07T12:06:39.002Z,1008.58
2017-10-07T12:08:32.021Z,1008.57
2017-10-07T12:09:32.048Z,1008.61
2017-10-07T12:11:25.090Z,1008.53
2017-10-07T12:12:25.117Z,1008.51
2017-10-07T12:14:18.102Z,1008.49
2017-10-07T12:15:18.163Z,1008.49
2017-10-07T12:17:11.171Z,1008.52
2017-10-07T12:18:11.204Z,1008.51
2017-10-07T12:20:04.193Z,1008.44
2017-10-07T12:21:04.251Z,1008.40
2017-10-07T12:22:57.263Z,1008.35
2017-10-07T12:23:57.302Z,1008.28
2017-10-07T12:25:50.283Z,1008.29
2017-10-07T12:26:50.342Z,1008.28
2017-10-07T12:28:43.343Z,1008.26
2017-10-07T12:29:43.384Z,1008.25
2017-10-07T12:31:36.401Z,1008.22
2017-10-07T12:32:36.426Z,1008.18
2017-10-07T12:34:29.423Z,1008.13
2017-10-07T12:35:29.483Z,1008.08
2017-10-07T12:37:22.490Z,1008.02
2017-10-07T12:38:22.530Z,1008.06
2017-10-07T12:40:30.327Z,1008.07
2017-10-07T12:41:30.388Z,1008.09
2017-10-07T12:43:23.389Z,1007.99
2017-10-07T12:44:23.429Z,1007.92
2017-10-07T12:46:16.416Z,1007.94
2017-10-07T12:47:16.473Z,1007.84
2017-10-07T12:49:09.478Z,1007.90
2017-10-07T12:50:09.517Z,1007.80
2017-10-07T12:52:02.522Z,1007.77
2017-10-07T12:53:02.562Z,1007.73
2017-10-07T12:54:55.549Z,1007.62
2017-10-07T12:55:55.605Z,1007.61
2017-10-07T12:57:48.665Z,1007.50
2017-10-07T12:58:48.656Z,1007.51
2017-10-07T13:00:41.640Z,1007.52
2017-10-07T13:01:41.699Z,1007.50
2017-10-07T13:03:34.708Z,1007.45
2017-10-07T13:04:34.749Z,1007.41
2017-10-07T13:06:27.734Z,1007.35
2017-10-07T13:07:27.796Z,1007.38
2017-10-07T13:09:20.823Z,1007.27
2017-10-07T13:10:20.842Z,1007.24
2017-10-07T13:12:13.847Z,1007.31
2017-10-07T13:13:13.891Z,1007.29
2017-10-07T13:15:06.874Z,1007.26
2017-10-07T13:16:06.956Z,1007.26
2017-10-07T13:17:59.935Z,1007.31
2017-10-07T13:18:59.992Z,1007.25
2017-10-07T13:20:52.966Z,1007.26
2017-10-07T13:21:53.037Z,1007.24
2017-10-07T13:23:46.026Z,1007.23
2017-10-07T13:24:46.068Z,1007.18
2017-10-07T13:26:39.058Z,1007.14
2017-10-07T13:27:39.112Z,1007.15
2017-10-07T13:29:32.121Z,1007.12
2017-10-07T13:30:32.157Z,1007.11
2017-10-07T13:32:25.163Z,1007.08
2017-10-07T13:33:25.200Z,1007.04
2017-10-07T13:35:18.186Z,1006.95
2017-10-07T13:36:18.245Z,1006.92
2017-10-07T13:38:11.253Z,1006.92
2017-10-07T13:39:11.291Z,1006.87
2017-10-07T13:41:04.297Z,1006.88
2017-10-07T13:42:04.342Z,1006.87
2017-10-07T13:43:57.345Z,1006.92
2017-10-07T13:44:57.392Z,1006.90
2017-10-07T13:46:51.373Z,1007.02
2017-10-07T13:47:51.435Z,1006.93
2017-10-07T13:49:44.439Z,1006.89
2017-10-07T13:50:44.489Z,1006.88
2017-10-07T13:52:37.488Z,1006.76
2017-10-07T13:53:37.527Z,1006.77
2017-10-07T13:55:30.539Z,1006.81
2017-10-07T13:56:30.618Z,1006.75
2017-10-07T13:58:23.620Z,1006.64
2017-10-07T13:59:23.641Z,1006.69
2017-10-07T14:01:16.624Z,1006.74
2017-10-07T14:02:16.687Z,1006.70
2017-10-07T14:04:09.690Z,1006.70
2017-10-07T14:05:09.728Z,1006.62
2017-10-07T14:07:02.717Z,1006.61
2017-10-07T14:08:02.774Z,1006.58
2017-10-07T14:09:55.782Z,1006.57
2017-10-07T14:10:55.822Z,1006.57
2017-10-07T14:12:48.848Z,1006.55
2017-10-07T14:13:48.886Z,1006.55
2017-10-07T14:15:41.870Z,1006.49
2017-10-07T14:17:54.890Z,1006.44
2017-10-07T14:18:54.929Z,1006.44
2017-10-07T14:20:47.917Z,1006.41
2017-10-07T14:21:47.993Z,1006.38
2017-10-07T14:23:40.983Z,1006.41
2017-10-07T14:24:41.017Z,1006.35
2017-10-07T14:26:34.005Z,1006.30
2017-10-07T14:27:34.068Z,1006.32
2017-10-07T14:29:27.092Z,1006.33
2017-10-07T14:30:27.111Z,1006.35
2017-10-07T14:32:20.103Z,1006.33
2017-10-07T14:33:20.154Z,1006.28
2017-10-07T14:35:13.164Z,1006.27
2017-10-07T14:36:13.201Z,1006.24
2017-10-07T14:38:06.201Z,1006.17
2017-10-07T14:39:06.242Z,1006.14
2017-10-07T14:40:59.231Z,1006.24
2017-10-07T14:41:59.292Z,1006.11
2017-10-07T14:43:52.300Z,1006.17
2017-10-07T14:44:52.341Z,1006.00
2017-10-07T14:46:45.327Z,1006.05
2017-10-07T14:47:45.404Z,1006.01
2017-10-07T14:49:38.400Z,1005.90
2017-10-07T14:50:38.454Z,1005.91
2017-10-07T14:52:31.426Z,1005.99
2017-10-07T14:53:31.485Z,1005.92
2017-10-07T14:55:24.532Z,1005.92
2017-10-07T14:56:24.558Z,1005.84
2017-10-07T14:58:17.582Z,1005.88
2017-10-07T14:59:17.593Z,1005.84
2017-10-07T15:01:10.602Z,1005.88
2017-10-07T15:02:10.668Z,1005.77
2017-10-07T15:04:03.675Z,1005.77
2017-10-07T15:05:03.696Z,1005.80
2017-10-07T15:06:56.679Z,1005.85
2017-10-07T15:07:56.770Z,1005.79
2017-10-07T15:09:49.798Z,1005.82
2017-10-07T15:10:49.820Z,1005.70
2017-10-07T15:12:43.227Z,1005.74
2017-10-07T15:13:43.284Z,1005.76
2017-10-07T15:15:37.544Z,1005.73
2017-10-07T15:16:37.579Z,1005.70
2017-10-07T15:18:31.625Z,1005.75
2017-10-07T15:19:31.660Z,1005.66
2017-10-07T15:21:24.647Z,1005.72
2017-10-07T15:22:24.708Z,1005.74
2017-10-07T15:24:17.713Z,1005.76
2017-10-07T15:25:17.753Z,1005.66
2017-10-07T15:27:10.775Z,1005.61
2017-10-07T15:28:10.806Z,1005.64
2017-10-07T15:30:03.818Z,1005.61
2017-10-07T15:31:03.858Z,1005.60
2017-10-07T15:32:56.849Z,1005.61
2017-10-07T15:33:56.918Z,1005.58
2017-10-07T15:35:49.930Z,1005.62
2017-10-07T15:36:49.960Z,1005.60
2017-10-07T15:38:42.986Z,1005.51
2017-10-07T15:39:43.009Z,1005.58
2017-10-07T15:41:35.997Z,1005.54
2017-10-07T15:42:36.056Z,1005.50
2017-10-07T15:44:29.106Z,1005.52
2017-10-07T15:45:29.112Z,1005.52
2017-10-07T15:47:22.098Z,1005.47
2017-10-07T15:48:22.144Z,1005.51
2017-10-07T15:50:15.150Z,1005.47
2017-10-07T15:51:15.233Z,1005.48
2017-10-07T15:53:08.241Z,1005.44
2017-10-07T15:54:08.259Z,1005.39
2017-10-07T15:56:01.248Z,1005.40
2017-10-07T15:57:01.309Z,1005.33
2017-10-07T15:58:54.324Z,1005.30
2017-10-07T15:59:54.379Z,1005.31
2017-10-07T16:01:47.436Z,1005.31
2017-10-07T16:02:47.412Z,1005.30
2017-10-07T16:04:40.419Z,1005.25
2017-10-07T16:05:40.460Z,1005.23
2017-10-07T16:07:33.446Z,1005.24
2017-10-07T16:08:33.562Z,1005.18
2017-10-07T16:10:26.508Z,1005.18
2017-10-07T16:11:26.547Z,1005.26
2017-10-07T16:13:19.555Z,1005.15
2017-10-07T16:14:19.593Z,1005.21
2017-10-07T16:16:12.599Z,1005.18
2017-10-07T16:17:12.655Z,1005.21
2017-10-07T16:19:05.646Z,1005.19
2017-10-07T16:20:05.680Z,1005.17
2017-10-07T16:21:58.664Z,1005.08
2017-10-07T16:22:58.724Z,1005.02
2017-10-07T16:24:51.733Z,1005.06
2017-10-07T16:25:51.768Z,1005.10
2017-10-07T16:27:44.753Z,1005.00
2017-10-07T16:28:44.812Z,1004.87
2017-10-07T16:30:37.824Z,1005.04
2017-10-07T16:31:37.857Z,1005.02
2017-10-07T16:33:30.861Z,1005.01
2017-10-07T16:34:30.902Z,1004.94
2017-10-07T16:36:23.909Z,1004.97
2017-10-07T16:37:23.949Z,1004.91
2017-10-07T16:39:17.465Z,1004.89
2017-10-07T16:40:17.499Z,1004.86
2017-10-07T16:42:10.486Z,1004.89
2017-10-07T16:43:10.544Z,1004.88
2017-10-07T16:45:03.547Z,1004.78
2017-10-07T16:46:03.586Z,1004.71
2017-10-07T16:47:56.599Z,1004.64
2017-10-07T16:48:56.639Z,1004.62
2017-10-07T16:50:49.646Z,1004.64
2017-10-07T16:51:49.683Z,1004.68
2017-10-07T16:53:42.689Z,1004.64
2017-10-07T16:54:42.731Z,1004.67
2017-10-07T16:56:35.716Z,1004.71
2017-10-07T16:57:35.776Z,1004.68
2017-10-07T16:59:28.805Z,1004.69
2017-10-07T17:00:28.835Z,1004.70
2017-10-07T17:02:21.816Z,1004.71
2017-10-07T17:03:21.890Z,1004.74
2017-10-07T17:05:14.876Z,1004.71
2017-10-07T17:06:14.915Z,1004.69
2017-10-07T17:08:08.930Z,1004.69
2017-10-07T17:09:08.969Z,1004.59
2017-10-07T17:11:01.975Z,1004.56
2017-10-07T17:12:02.015Z,1004.54
2017-10-07T17:13:55.021Z,1004.52
2017-10-07T17:14:55.059Z,1004.57
2017-10-07T17:16:48.047Z,1004.52
2017-10-07T17:17:48.102Z,1004.42
2017-10-07T17:19:41.108Z,1004.44
2017-10-07T17:20:41.172Z,1004.45
2017-10-07T17:22:34.134Z,1004.40
2017-10-07T17:23:34.192Z,1004.37
2017-10-07T17:25:27.196Z,1004.36
2017-10-07T17:26:27.235Z,1004.32
2017-10-07T17:28:20.223Z,1004.38